createdAt,value
2017-05-21T00:00:52.213Z,6.9
2017-05-21T00:02:10.861Z,6.9
2017-05-21T00:03:29.547Z,6.9
2017-05-21T00:04:48.195Z,6.9
2017-05-21T00:06:06.834Z,6.9
2017-05-21T00:07:25.542Z,6.9
2017-05-21T00:08:44.214Z,6.8
2017-05-21T00:10:02.905Z,6.8
2017-05-21T00:11:21.559Z,6.7
2017-05-21T00:12:40.248Z,6.6
2017-05-21T00:13:58.954Z,6.6
2017-05-21T00:15:17.602Z,6.6
2017-05-21T00:16:36.248Z,6.5
2017-05-21T00:17:54.909Z,6.5
2017-05-21T00:19:13.578Z,6.5
2017-05-21T00:20:32.284Z,6.5
2017-05-21T00:21:50.986Z,6.5
2017-05-21T00:23:09.641Z,6.5
2017-05-21T00:24:28.337Z,6.4
2017-05-21T00:25:46.993Z,6.4
2017-05-21T00:27:05.688Z,6.4
2017-05-21T00:28:24.372Z,6.4
2017-05-21T00:29:43.094Z,6.3
2017-05-21T00:31:01.796Z,6.3
2017-05-21T00:32:20.504Z,6.3
2017-05-21T00:33:39.186Z,6.3
2017-05-21T00:34:57.843Z,6.3
2017-05-21T00:36:16.554Z,6.3
2017-05-21T00:37:35.211Z,6.2
2017-05-21T00:38:53.895Z,6.2
2017-05-21T00:40:12.622Z,6.2
2017-05-21T00:41:31.278Z,6.1
2017-05-21T00:42:49.976Z,6.1
2017-05-21T00:44:08.652Z,6.1
2017-05-21T00:45:27.392Z,6.2
2017-05-21T00:46:46.043Z,6.2
2017-05-21T00:48:04.704Z,6.2
2017-05-21T00:49:23.403Z,6.1
2017-05-21T00:50:42.083Z,6.1
2017-05-21T00:52:00.773Z,6.1
2017-05-21T00:53:19.434Z,6.1
2017-05-21T00:54:38.088Z,6.1
2017-05-21T00:55:56.816Z,6
2017-05-21T00:57:15.518Z,6
2017-05-21T00:58:34.224Z,6
2017-05-21T00:59:52.940Z,6
2017-05-21T01:01:11.617Z,6.1
2017-05-21T01:02:30.312Z,6
2017-05-21T01:03:48.983Z,6
2017-05-21T01:05:07.645Z,6
2017-05-21T01:06:26.340Z,5.9
2017-05-21T01:07:44.993Z,6
2017-05-21T01:09:03.679Z,6
2017-05-21T01:10:22.368Z,5.9
2017-05-21T01:11:41.027Z,5.9
2017-05-21T01:12:59.681Z,5.9
2017-05-21T01:14:18.347Z,5.9
2017-05-21T01:15:37.040Z,5.9
2017-05-21T01:16:55.720Z,5.9
2017-05-21T01:18:14.367Z,5.8
2017-05-21T01:19:33.013Z,5.8
2017-05-21T01:20:51.671Z,5.8
2017-05-21T01:22:10.323Z,5.7
2017-05-21T01:23:29.012Z,5.7
2017-05-21T01:24:47.715Z,5.7
2017-05-21T01:26:06.364Z,5.7
2017-05-21T01:27:30.051Z,5.7
2017-05-21T01:28:48.730Z,5.8
2017-05-21T01:30:07.414Z,5.8
2017-05-21T01:31:26.100Z,5.8
2017-05-21T01:32:44.766Z,5.8
2017-05-21T01:34:03.435Z,5.8
2017-05-21T01:35:22.101Z,5.8
2017-05-21T01:36:40.772Z,5.8
2017-05-21T01:37:59.457Z,5.8
2017-05-21T01:39:18.190Z,5.8
2017-05-21T01:40:36.856Z,5.8
2017-05-21T01:41:55.560Z,5.8
2017-05-21T01:43:14.269Z,5.8
2017-05-21T01:44:32.968Z,5.7
2017-05-21T01:45:51.644Z,5.7
2017-05-21T01:47:10.324Z,5.6
2017-05-21T01:48:29.050Z,5.6
2017-05-21T01:49:47.750Z,5.5
2017-05-21T01:51:06.408Z,5.5
2017-05-21T01:52:25.114Z,5.5
2017-05-21T01:53:43.808Z,5.4
2017-05-21T01:55:02.511Z,5.4
2017-05-21T01:56:21.171Z,5.4
2017-05-21T01:57:39.832Z,5.4
2017-05-21T01:58:58.584Z,5.4
2017-05-21T02:00:17.308Z,5.4
2017-05-21T02:01:35.982Z,5.3
2017-05-21T02:02:54.679Z,5.3
2017-05-21T02:04:13.379Z,5.3
2017-05-21T02:05:32.044Z,5.3
2017-05-21T02:06:50.717Z,5.3
2017-05-21T02:08:09.385Z,5.3
2017-05-21T02:09:28.101Z,5.3
2017-05-21T02:10:46.770Z,5.2
2017-05-21T02:12:05.434Z,5.2
2017-05-21T02:13:24.124Z,5.2
2017-05-21T02:14:42.812Z,5.2
2017-05-21T02:16:01.480Z,5.2
2017-05-21T02:17:20.139Z,5.2
2017-05-21T02:18:38.814Z,5.1
2017-05-21T02:19:57.530Z,5.1
2017-05-21T02:21:16.195Z,5.1
2017-05-21T02:22:34.870Z,5.1
2017-05-21T02:23:53.551Z,5.1
2017-05-21T02:25:12.307Z,5
2017-05-21T02:26:30.982Z,5
2017-05-21T02:27:49.645Z,5
2017-05-21T02:29:08.370Z,5
2017-05-21T02:30:27.036Z,5
2017-05-21T02:31:45.694Z,5
2017-05-21T02:33:04.386Z,5
2017-05-21T02:34:23.076Z,4.9
2017-05-21T02:35:41.762Z,4.9
2017-05-21T02:37:00.432Z,4.9
2017-05-21T02:38:19.145Z,4.9
2017-05-21T02:39:37.839Z,4.9
2017-05-21T02:40:56.558Z,4.9
2017-05-21T02:42:15.222Z,5
2017-05-21T02:43:33.905Z,5
2017-05-21T02:44:52.579Z,5.1
2017-05-21T02:46:11.331Z,5.1
2017-05-21T02:47:29.997Z,5.2
2017-05-21T02:48:48.688Z,5.2
2017-05-21T02:50:07.452Z,5.2
2017-05-21T02:51:26.131Z,5.1
2017-05-21T02:52:44.795Z,5.1
2017-05-21T02:54:03.462Z,5
2017-05-21T02:55:22.123Z,5
2017-05-21T02:56:40.856Z,4.9
2017-05-21T02:57:59.560Z,4.9
2017-05-21T02:59:18.227Z,4.8
2017-05-21T03:00:36.893Z,4.9
2017-05-21T03:01:55.585Z,4.9
2017-05-21T03:03:14.256Z,4.9
2017-05-21T03:04:32.919Z,5
2017-05-21T03:05:51.591Z,5
2017-05-21T03:07:10.336Z,5
2017-05-21T03:08:29.034Z,5
2017-05-21T03:09:47.713Z,5
2017-05-21T03:11:06.387Z,5
2017-05-21T03:12:25.067Z,5
2017-05-21T03:13:43.765Z,5
2017-05-21T03:15:02.427Z,5
2017-05-21T03:16:21.104Z,5
2017-05-21T03:17:39.776Z,5
2017-05-21T03:18:58.472Z,5
2017-05-21T03:20:17.135Z,4.9
2017-05-21T03:21:35.820Z,4.9
2017-05-21T03:22:54.507Z,5
2017-05-21T03:24:13.196Z,5
2017-05-21T03:25:31.922Z,5
2017-05-21T03:26:50.620Z,5
2017-05-21T03:28:09.315Z,5
2017-05-21T03:29:28.016Z,5
2017-05-21T03:30:46.707Z,5
2017-05-21T03:32:05.414Z,5
2017-05-21T03:33:24.158Z,5
2017-05-21T03:34:42.826Z,5.1
2017-05-21T03:36:01.492Z,5.2
2017-05-21T03:37:20.177Z,5.2
2017-05-21T03:38:38.895Z,5.2
2017-05-21T03:39:57.572Z,5.2
2017-05-21T03:41:16.295Z,5.2
2017-05-21T03:42:34.960Z,5.3
2017-05-21T03:43:53.700Z,5.3
2017-05-21T03:45:12.435Z,5.3
2017-05-21T03:46:31.099Z,5.4
2017-05-21T03:47:49.769Z,5.5
2017-05-21T03:49:08.469Z,5.5
2017-05-21T03:50:27.174Z,5.7
2017-05-21T03:51:45.833Z,5.9
2017-05-21T03:53:04.565Z,6.1
2017-05-21T03:54:23.312Z,6.2
2017-05-21T03:55:41.979Z,6.4
2017-05-21T03:57:00.636Z,6.6
2017-05-21T03:58:19.359Z,6.7
2017-05-21T03:59:38.047Z,6.8
2017-05-21T04:00:56.718Z,6.9
2017-05-21T04:02:15.428Z,6.9
2017-05-21T04:03:34.138Z,7
2017-05-21T04:04:52.836Z,7
2017-05-21T04:06:11.548Z,7
2017-05-21T04:07:30.271Z,7
2017-05-21T04:08:48.991Z,7
2017-05-21T04:10:07.685Z,7
2017-05-21T04:11:26.356Z,7.1
2017-05-21T04:12:45.023Z,7.1
2017-05-21T04:14:03.689Z,7.2
2017-05-21T04:15:22.412Z,7.3
2017-05-21T04:16:41.085Z,7.4
2017-05-21T04:17:59.799Z,7.5
2017-05-21T04:19:18.473Z,7.6
2017-05-21T04:20:37.156Z,7.7
2017-05-21T04:21:55.820Z,7.8
2017-05-21T04:23:14.487Z,7.8
2017-05-21T04:24:33.158Z,7.9
2017-05-21T04:25:51.862Z,8
2017-05-21T04:27:10.566Z,8
2017-05-21T04:28:29.250Z,8.1
2017-05-21T04:29:47.913Z,8.2
2017-05-21T04:31:06.603Z,8.2
2017-05-21T04:32:25.319Z,8.3
2017-05-21T04:33:44.021Z,8.4
2017-05-21T04:35:02.699Z,8.5
2017-05-21T04:36:21.419Z,8.5
2017-05-21T04:37:40.086Z,8.7
2017-05-21T04:38:58.764Z,8.8
2017-05-21T04:40:17.461Z,8.9
2017-05-21T04:41:36.142Z,9
2017-05-21T04:42:54.812Z,9.1
2017-05-21T04:44:13.478Z,9.1
2017-05-21T04:45:32.153Z,9.1
2017-05-21T04:46:50.878Z,9
2017-05-21T04:48:09.566Z,8.9
2017-05-21T04:49:28.246Z,8.9
2017-05-21T04:50:46.908Z,8.9
2017-05-21T04:52:05.603Z,8.8
2017-05-21T04:53:24.293Z,8.8
2017-05-21T04:54:42.955Z,8.7
2017-05-21T04:56:01.704Z,8.7
2017-05-21T04:57:20.373Z,8.7
2017-05-21T04:58:39.070Z,8.6
2017-05-21T04:59:57.738Z,8.6
2017-05-21T05:01:16.418Z,8.6
2017-05-21T05:02:35.113Z,8.7
2017-05-21T05:03:53.863Z,8.7
2017-05-21T05:05:12.570Z,8.8
2017-05-21T05:06:31.289Z,8.8
2017-05-21T05:07:49.982Z,8.8
2017-05-21T05:09:08.703Z,8.9
2017-05-21T05:10:27.440Z,8.9
2017-05-21T05:11:46.121Z,9
2017-05-21T05:13:04.812Z,9
2017-05-21T05:14:23.520Z,9.1
2017-05-21T05:15:42.229Z,9.1
2017-05-21T05:17:00.916Z,9.2
2017-05-21T05:18:19.597Z,9.2
2017-05-21T05:19:38.262Z,9.3
2017-05-21T05:20:56.966Z,9.3
2017-05-21T05:22:15.636Z,9.3
2017-05-21T05:23:34.392Z,9.4
2017-05-21T05:24:53.110Z,9.5
2017-05-21T05:26:11.766Z,9.5
2017-05-21T05:27:30.449Z,9.5
2017-05-21T05:28:49.166Z,9.6
2017-05-21T05:30:07.889Z,9.7
2017-05-21T05:31:26.564Z,9.7
2017-05-21T05:32:45.278Z,9.7
2017-05-21T05:34:04.003Z,9.9
2017-05-21T05:35:22.730Z,10
2017-05-21T05:36:41.410Z,10.1
2017-05-21T05:38:00.093Z,10.3
2017-05-21T05:39:18.828Z,10.4
2017-05-21T05:40:37.568Z,10.5
2017-05-21T05:41:56.301Z,10.5
2017-05-21T05:43:15.003Z,10.6
2017-05-21T05:44:33.720Z,10.7
2017-05-21T05:45:52.455Z,10.8
2017-05-21T05:47:11.139Z,10.9
2017-05-21T05:48:29.853Z,11
2017-05-21T05:49:48.602Z,11.1
2017-05-21T05:51:07.313Z,11.2
2017-05-21T05:52:25.992Z,11.3
2017-05-21T05:53:44.718Z,11.4
2017-05-21T05:55:03.403Z,11.6
2017-05-21T05:56:22.093Z,11.7
2017-05-21T05:57:40.783Z,11.7
2017-05-21T05:58:59.496Z,11.8
2017-05-21T06:00:18.206Z,11.7
2017-05-21T06:01:36.877Z,11.7
2017-05-21T06:02:55.599Z,11.6
2017-05-21T06:04:14.295Z,11.6
2017-05-21T06:05:33.001Z,11.6
2017-05-21T06:06:51.713Z,11.6
2017-05-21T06:08:10.391Z,11.6
2017-05-21T06:09:29.145Z,11.7
2017-05-21T06:10:47.863Z,11.7
2017-05-21T06:12:06.590Z,11.7
2017-05-21T06:13:25.339Z,11.8
2017-05-21T06:14:44.112Z,11.9
2017-05-21T06:16:02.861Z,11.9
2017-05-21T06:17:21.600Z,11.9
2017-05-21T06:18:40.365Z,12
2017-05-21T06:19:59.088Z,12.1
2017-05-21T06:21:17.809Z,12.1
2017-05-21T06:22:36.498Z,12.1
2017-05-21T06:23:55.208Z,12.1
2017-05-21T06:25:13.814Z,12.2
2017-05-21T06:26:32.485Z,12.3
2017-05-21T06:27:51.168Z,12.4
2017-05-21T06:29:09.851Z,12.4
2017-05-21T06:30:28.590Z,12.5
2017-05-21T06:31:47.342Z,12.6
2017-05-21T06:33:06.081Z,12.6
2017-05-21T06:34:24.766Z,12.7
2017-05-21T06:35:43.449Z,12.7
2017-05-21T06:37:02.133Z,12.7
2017-05-21T06:38:20.822Z,12.7
2017-05-21T06:39:39.522Z,12.9
2017-05-21T06:40:58.209Z,12.9
2017-05-21T06:42:16.927Z,12.9
2017-05-21T06:43:35.606Z,12.9
2017-05-21T06:44:54.287Z,12.9
2017-05-21T06:46:12.971Z,13
2017-05-21T06:47:31.683Z,13.1
2017-05-21T06:48:50.370Z,13.1
2017-05-21T06:50:09.118Z,13.1
2017-05-21T06:51:27.800Z,13
2017-05-21T06:52:46.525Z,12.9
2017-05-21T06:54:05.250Z,12.8
2017-05-21T06:55:23.982Z,12.8
2017-05-21T06:56:42.666Z,12.7
2017-05-21T06:58:01.386Z,12.6
2017-05-21T06:59:20.093Z,12.6
2017-05-21T07:00:38.800Z,12.6
2017-05-21T07:01:57.554Z,12.7
2017-05-21T07:03:16.250Z,12.9
2017-05-21T07:04:34.970Z,13.1
2017-05-21T07:05:53.654Z,13.4
2017-05-21T07:07:12.410Z,13.7
2017-05-21T07:08:31.118Z,14.1
2017-05-21T07:09:49.852Z,14.4
2017-05-21T07:11:08.563Z,14.8
2017-05-21T07:12:27.297Z,15.2
2017-05-21T07:13:45.977Z,15.4
2017-05-21T07:15:04.716Z,15.7
2017-05-21T07:16:23.404Z,15.7
2017-05-21T07:17:42.146Z,15.7
2017-05-21T07:19:00.841Z,15.5
2017-05-21T07:20:19.580Z,15.5
2017-05-21T07:21:38.266Z,15.6
2017-05-21T07:22:56.992Z,15.5
2017-05-21T07:24:15.743Z,15.5
2017-05-21T07:25:34.429Z,15.4
2017-05-21T07:26:53.117Z,15.4
2017-05-21T07:28:11.797Z,15.3
2017-05-21T07:29:30.536Z,15.3
2017-05-21T07:30:49.257Z,15.2
2017-05-21T07:32:07.937Z,15.1
2017-05-21T07:33:26.658Z,15.2
2017-05-21T07:34:45.344Z,15.3
2017-05-21T07:36:04.094Z,15.4
2017-05-21T07:37:22.798Z,15.6
2017-05-21T07:38:41.512Z,15.7
2017-05-21T07:40:00.229Z,15.8
2017-05-21T07:41:18.941Z,16
2017-05-21T07:42:37.630Z,16.1
2017-05-21T07:43:56.359Z,16.2
2017-05-21T07:45:15.060Z,16.3
2017-05-21T07:46:33.738Z,16.2
2017-05-21T07:47:52.444Z,16.2
2017-05-21T07:49:11.163Z,16.3
2017-05-21T07:50:29.917Z,16.3
2017-05-21T07:51:48.595Z,16.5
2017-05-21T07:53:07.330Z,16.6
2017-05-21T07:54:26.019Z,16.8
2017-05-21T07:55:44.715Z,16.9
2017-05-21T07:57:03.395Z,17
2017-05-21T07:58:22.090Z,16.8
2017-05-21T07:59:40.826Z,16.4
2017-05-21T08:00:59.539Z,16
2017-05-21T08:02:18.215Z,15.8
2017-05-21T08:03:36.897Z,15.5
2017-05-21T08:04:55.593Z,15.3
2017-05-21T08:06:14.365Z,15.2
2017-05-21T08:07:33.049Z,15.1
2017-05-21T08:08:51.742Z,15.1
2017-05-21T08:10:10.438Z,15.1
2017-05-21T08:11:29.171Z,15
2017-05-21T08:12:47.900Z,14.9
2017-05-21T08:14:06.631Z,14.9
2017-05-21T08:15:25.361Z,14.9
2017-05-21T08:16:44.105Z,14.8
2017-05-21T08:18:02.847Z,14.8
2017-05-21T08:19:21.567Z,14.7
2017-05-21T08:20:40.277Z,14.7
2017-05-21T08:21:58.996Z,14.7
2017-05-21T08:23:17.681Z,14.7
2017-05-21T08:24:36.392Z,14.9
2017-05-21T08:25:55.078Z,15.1
2017-05-21T08:27:13.826Z,15.3
2017-05-21T08:28:32.568Z,15.4
2017-05-21T08:29:51.279Z,15.6
2017-05-21T08:31:09.969Z,15.7
2017-05-21T08:32:28.667Z,15.8
2017-05-21T08:33:47.416Z,15.9
2017-05-21T08:35:06.093Z,16.1
2017-05-21T08:36:24.805Z,16.3
2017-05-21T08:37:43.496Z,16.4
2017-05-21T08:39:02.186Z,16.6
2017-05-21T08:40:20.863Z,16.7
2017-05-21T08:41:39.570Z,16.9
2017-05-21T08:42:58.286Z,17
2017-05-21T08:44:16.981Z,17
2017-05-21T08:45:35.723Z,17.1
2017-05-21T08:46:54.407Z,17.5
2017-05-21T08:48:13.114Z,17.9
2017-05-21T08:49:31.809Z,18.2
2017-05-21T08:50:50.508Z,18.4
2017-05-21T08:52:09.199Z,18.3
2017-05-21T08:53:27.915Z,18.3
2017-05-21T08:54:46.632Z,18.4
2017-05-21T08:56:05.352Z,18.6
2017-05-21T08:57:24.099Z,18.8
2017-05-21T08:58:42.786Z,19.1
2017-05-21T09:00:01.510Z,19.4
2017-05-21T09:01:20.202Z,19.3
2017-05-21T09:02:38.945Z,19.1
2017-05-21T09:03:57.641Z,19.1
2017-05-21T09:05:16.386Z,19.3
2017-05-21T09:06:35.068Z,19.4
2017-05-21T09:07:53.852Z,19.4
2017-05-21T09:09:12.594Z,19.4
2017-05-21T09:10:31.275Z,19.3
2017-05-21T09:11:49.956Z,19.4
2017-05-21T09:13:08.647Z,19.5
2017-05-21T09:14:27.420Z,19.4
2017-05-21T09:15:46.100Z,19.5
2017-05-21T09:17:04.789Z,19.3
2017-05-21T09:18:23.462Z,19.1
2017-05-21T09:19:42.163Z,19.1
2017-05-21T09:21:00.896Z,19.1
2017-05-21T09:22:19.606Z,19
2017-05-21T09:23:38.298Z,19
2017-05-21T09:24:57.018Z,19
2017-05-21T09:26:15.747Z,19
2017-05-21T09:27:34.464Z,19.1
2017-05-21T09:28:53.145Z,19.4
2017-05-21T09:30:11.885Z,19.6
2017-05-21T09:31:30.578Z,19.6
2017-05-21T09:32:49.318Z,19.5
2017-05-21T09:34:08.002Z,19.4
2017-05-21T09:35:26.766Z,19.4
2017-05-21T09:36:45.445Z,19.4
2017-05-21T09:38:04.142Z,19.5
2017-05-21T09:39:22.847Z,19.5
2017-05-21T09:40:41.592Z,19.6
2017-05-21T09:42:00.335Z,19.7
2017-05-21T09:43:19.056Z,19.7
2017-05-21T09:44:37.741Z,19.7
2017-05-21T09:45:56.459Z,19.9
2017-05-21T09:47:15.182Z,20.2
2017-05-21T09:48:33.944Z,20.2
2017-05-21T09:49:52.631Z,20.2
2017-05-21T09:51:11.339Z,20.3
2017-05-21T09:52:30.023Z,20.5
2017-05-21T09:53:48.722Z,20.7
2017-05-21T09:55:07.517Z,21
2017-05-21T09:56:26.219Z,21.2
2017-05-21T09:57:44.960Z,21.2
2017-05-21T09:59:03.649Z,21.2
2017-05-21T10:00:22.408Z,21.2
2017-05-21T10:01:41.150Z,21.3
2017-05-21T10:02:59.835Z,21.5
2017-05-21T10:04:18.576Z,21.3
2017-05-21T10:05:37.306Z,20.9
2017-05-21T10:06:56.007Z,21
2017-05-21T10:08:14.748Z,21
2017-05-21T10:09:33.445Z,21
2017-05-21T10:10:52.187Z,20.9
2017-05-21T10:12:10.899Z,20.7
2017-05-21T10:13:29.587Z,20.6
2017-05-21T10:14:48.270Z,20.6
2017-05-21T10:16:07.015Z,20.4
2017-05-21T10:17:25.759Z,20.3
2017-05-21T10:18:44.497Z,20.4
2017-05-21T10:20:03.176Z,20.6
2017-05-21T10:21:21.861Z,20.9
2017-05-21T10:22:40.585Z,21.1
2017-05-21T10:23:59.304Z,21.1
2017-05-21T10:25:17.998Z,21.1
2017-05-21T10:26:36.708Z,21.3
2017-05-21T10:27:55.399Z,21.5
2017-05-21T10:29:14.113Z,21.7
2017-05-21T10:30:32.799Z,21.6
2017-05-21T10:31:51.475Z,21.6
2017-05-21T10:33:10.208Z,21.3
2017-05-21T10:34:28.937Z,21
2017-05-21T10:35:47.615Z,20.8
2017-05-21T10:37:06.328Z,20.8
2017-05-21T10:38:25.028Z,20.7
2017-05-21T10:39:43.777Z,20.6
2017-05-21T10:41:02.470Z,20.6
2017-05-21T10:42:21.175Z,20.6
2017-05-21T10:43:39.946Z,20.7
2017-05-21T10:44:58.651Z,20.7
2017-05-21T10:46:17.413Z,20.7
2017-05-21T10:47:36.121Z,20.7
2017-05-21T10:48:54.809Z,20.9
2017-05-21T10:50:13.493Z,21
2017-05-21T10:51:32.177Z,21.1
2017-05-21T10:52:50.858Z,21.1
2017-05-21T10:54:09.612Z,21.2
2017-05-21T10:55:28.346Z,21.3
2017-05-21T10:56:47.078Z,21.1
2017-05-21T10:58:05.784Z,20.8
2017-05-21T10:59:24.499Z,20.8
2017-05-21T11:00:43.194Z,20.9
2017-05-21T11:02:01.867Z,21
2017-05-21T11:03:20.573Z,20.9
2017-05-21T11:04:39.283Z,20.7
2017-05-21T11:05:57.966Z,20.7
2017-05-21T11:07:16.649Z,21.1
2017-05-21T11:08:35.389Z,21.1
2017-05-21T11:09:54.143Z,21.1
2017-05-21T11:11:12.842Z,21.2
2017-05-21T11:12:31.588Z,21.3
2017-05-21T11:13:50.298Z,21.3
2017-05-21T11:15:09.023Z,21.4
2017-05-21T11:16:27.705Z,21.5
2017-05-21T11:17:46.397Z,21.6
2017-05-21T11:19:05.120Z,21.7
2017-05-21T11:20:23.841Z,22
2017-05-21T11:21:42.578Z,22.3
2017-05-21T11:23:01.322Z,22.2
2017-05-21T11:24:19.999Z,22.2
2017-05-21T11:25:38.690Z,22.3
2017-05-21T11:26:57.414Z,22.6
2017-05-21T11:28:16.098Z,22.6
2017-05-21T11:29:34.805Z,22.7
2017-05-21T11:30:53.514Z,23
2017-05-21T11:32:12.251Z,23.4
2017-05-21T11:33:30.939Z,23.9
2017-05-21T11:34:49.663Z,24.1
2017-05-21T11:36:08.359Z,24.5
2017-05-21T11:37:27.055Z,24.8
2017-05-21T11:38:45.749Z,25
2017-05-21T11:40:04.431Z,25.3
2017-05-21T11:41:23.145Z,25.2
2017-05-21T11:42:41.822Z,25
2017-05-21T11:44:00.508Z,24.9
2017-05-21T11:45:19.248Z,25
2017-05-21T11:46:37.994Z,25.1
2017-05-21T11:47:56.677Z,25.3
2017-05-21T11:49:15.349Z,25.3
2017-05-21T11:50:34.120Z,25.5
2017-05-21T11:51:52.833Z,25.3
2017-05-21T11:53:11.519Z,24.9
2017-05-21T11:54:30.260Z,24.9
2017-05-21T11:55:49.011Z,25.9
2017-05-21T11:57:07.708Z,26.6
2017-05-21T11:58:26.423Z,27.3
2017-05-21T11:59:45.149Z,28.2
2017-05-21T12:01:03.936Z,32.1
2017-05-21T12:02:22.623Z,33.8
2017-05-21T12:03:41.308Z,34.4
2017-05-21T12:04:59.985Z,34.7
2017-05-21T12:06:18.668Z,35
2017-05-21T12:07:37.435Z,35
2017-05-21T12:08:56.150Z,34.6
2017-05-21T12:10:14.842Z,34.5
2017-05-21T12:11:33.570Z,34.4
2017-05-21T12:12:52.254Z,34.3
2017-05-21T12:14:10.988Z,34.2
2017-05-21T12:15:29.676Z,33.3
2017-05-21T12:16:48.362Z,32.5
2017-05-21T12:18:07.124Z,32.1
2017-05-21T12:19:25.816Z,33.3
2017-05-21T12:20:44.555Z,34.7
2017-05-21T12:22:03.240Z,34.7
2017-05-21T12:23:21.995Z,35
2017-05-21T12:24:40.680Z,35.1
2017-05-21T12:25:59.431Z,35.6
2017-05-21T12:27:18.127Z,35.8
2017-05-21T12:28:36.850Z,36
2017-05-21T12:29:55.590Z,35.4
2017-05-21T12:31:14.324Z,34.9
2017-05-21T12:32:33.067Z,34.4
2017-05-21T12:33:51.821Z,33.2
2017-05-21T12:35:10.537Z,31.2
2017-05-21T12:36:29.249Z,29.6
2017-05-21T12:37:47.935Z,28.6
2017-05-21T12:39:06.668Z,28.1
2017-05-21T12:40:25.378Z,27.3
2017-05-21T12:41:44.085Z,26.4
2017-05-21T12:43:02.766Z,26
2017-05-21T12:44:21.478Z,25.9
2017-05-21T12:45:40.213Z,26.1
2017-05-21T12:46:58.957Z,26.4
2017-05-21T12:48:17.677Z,26.2
2017-05-21T12:49:36.408Z,26.1
2017-05-21T12:50:55.149Z,25.7
2017-05-21T12:52:13.903Z,25.3
2017-05-21T12:53:32.588Z,25.6
2017-05-21T12:54:51.308Z,25.5
2017-05-21T12:56:09.985Z,25.5
2017-05-21T12:57:28.685Z,25.7
2017-05-21T12:58:47.406Z,25.9
2017-05-21T13:00:06.093Z,25.9
2017-05-21T13:01:24.776Z,25.7
2017-05-21T13:02:43.467Z,25.7
2017-05-21T13:04:02.173Z,25.4
2017-05-21T13:05:20.901Z,25.3
2017-05-21T13:06:39.582Z,25.3
2017-05-21T13:07:58.270Z,25.1
2017-05-21T13:09:17.011Z,25.1
2017-05-21T13:10:35.693Z,25.2
2017-05-21T13:11:54.377Z,25.4
2017-05-21T13:13:13.120Z,25.6
2017-05-21T13:14:31.831Z,25.8
2017-05-21T13:15:50.608Z,25.8
2017-05-21T13:17:09.336Z,26.2
2017-05-21T13:18:28.025Z,26.4
2017-05-21T13:19:46.770Z,26.8
2017-05-21T13:21:05.493Z,27
2017-05-21T13:22:24.191Z,27.8
2017-05-21T13:23:42.990Z,28.7
2017-05-21T13:25:01.667Z,31.8
2017-05-21T13:26:20.383Z,34.6
2017-05-21T13:27:39.152Z,35.2
2017-05-21T13:28:57.837Z,35.6
2017-05-21T13:30:16.573Z,36
2017-05-21T13:31:35.272Z,36.2
2017-05-21T13:32:53.990Z,36.4
2017-05-21T13:34:12.730Z,36.6
2017-05-21T13:35:31.443Z,36.6
2017-05-21T13:36:50.160Z,36.7
2017-05-21T13:38:08.868Z,36.7
2017-05-21T13:39:27.576Z,36.3
2017-05-21T13:40:46.260Z,35.6
2017-05-21T13:42:04.955Z,35.1
2017-05-21T13:43:23.631Z,34.8
2017-05-21T13:44:42.319Z,34.5
2017-05-21T13:46:01.005Z,34.4
2017-05-21T13:47:19.766Z,34.4
2017-05-21T13:48:38.499Z,34.5
2017-05-21T13:49:57.218Z,34.9
2017-05-21T13:51:15.915Z,35.4
2017-05-21T13:52:34.640Z,35.8
2017-05-21T13:53:53.322Z,36.1
2017-05-21T13:55:12.004Z,36.2
2017-05-21T13:56:30.749Z,36.3
2017-05-21T13:57:49.475Z,36.5
2017-05-21T13:59:08.219Z,36.5
2017-05-21T14:00:26.965Z,36.3
2017-05-21T14:01:45.655Z,35.4
2017-05-21T14:03:04.369Z,34.8
2017-05-21T14:04:23.060Z,34.4
2017-05-21T14:05:41.754Z,34.1
2017-05-21T14:07:00.443Z,34.7
2017-05-21T14:08:19.174Z,34.7
2017-05-21T14:09:37.867Z,34.3
2017-05-21T14:10:56.575Z,32.1
2017-05-21T14:12:15.308Z,30.5
2017-05-21T14:13:34.098Z,29.1
2017-05-21T14:14:52.784Z,28.2
2017-05-21T14:16:11.470Z,27.5
2017-05-21T14:17:30.143Z,27.1
2017-05-21T14:18:48.857Z,26.9
2017-05-21T14:20:07.577Z,26.9
2017-05-21T14:21:26.261Z,27
2017-05-21T14:22:45.027Z,27.1
2017-05-21T14:24:03.775Z,27
2017-05-21T14:25:22.502Z,27.2
2017-05-21T14:26:41.188Z,27.4
2017-05-21T14:27:59.926Z,27.5
2017-05-21T14:29:18.640Z,27.4
2017-05-21T14:30:37.395Z,27.7
2017-05-21T14:31:56.092Z,27.6
2017-05-21T14:33:14.822Z,28.8
2017-05-21T14:34:33.547Z,28.8
2017-05-21T14:35:52.278Z,28.7
2017-05-21T14:37:10.967Z,29
2017-05-21T14:38:29.687Z,29.9
2017-05-21T14:39:48.404Z,28.6
2017-05-21T14:41:07.092Z,27.4
2017-05-21T14:42:25.775Z,26.6
2017-05-21T14:43:44.505Z,26.2
2017-05-21T14:45:03.221Z,25.9
2017-05-21T14:46:21.900Z,25.9
2017-05-21T14:47:40.605Z,25.5
2017-05-21T14:48:59.290Z,25.4
2017-05-21T14:50:18.058Z,25.4
2017-05-21T14:51:36.750Z,25.3
2017-05-21T14:52:55.440Z,25.3
2017-05-21T14:54:14.155Z,25.2
2017-05-21T14:55:32.873Z,25.6
2017-05-21T14:56:51.577Z,25.8
2017-05-21T14:58:10.282Z,25.7
2017-05-21T14:59:28.994Z,26
2017-05-21T15:00:47.689Z,26.2
2017-05-21T15:02:06.418Z,26.2
2017-05-21T15:03:25.129Z,25.9
2017-05-21T15:04:43.843Z,25.9
2017-05-21T15:06:02.608Z,25.8
2017-05-21T15:07:21.315Z,25.8
2017-05-21T15:08:40.047Z,25.6
2017-05-21T15:09:58.794Z,25.6
2017-05-21T15:11:17.501Z,25.1
2017-05-21T15:12:36.188Z,24.9
2017-05-21T15:13:54.916Z,24.9
2017-05-21T15:15:13.616Z,25
2017-05-21T15:16:32.361Z,24.8
2017-05-21T15:17:51.056Z,24.8
2017-05-21T15:19:09.740Z,25
2017-05-21T15:20:28.474Z,25
2017-05-21T15:21:47.189Z,24.9
2017-05-21T15:23:05.884Z,24.6
2017-05-21T15:24:24.583Z,24.6
2017-05-21T15:25:43.276Z,24.6
2017-05-21T15:27:02.030Z,24.4
2017-05-21T15:28:20.710Z,24
2017-05-21T15:29:39.401Z,23.9
2017-05-21T15:30:58.146Z,24
2017-05-21T15:32:16.831Z,24.1
2017-05-21T15:33:35.562Z,24.3
2017-05-21T15:34:54.271Z,24.2
2017-05-21T15:36:13.011Z,24.2
2017-05-21T15:37:31.724Z,24.3
2017-05-21T15:38:50.456Z,24.2
2017-05-21T15:40:09.154Z,24.1
2017-05-21T15:41:27.840Z,24.1
2017-05-21T15:42:46.610Z,24
2017-05-21T15:44:05.339Z,24.1
2017-05-21T15:45:24.057Z,24.3
2017-05-21T15:46:42.738Z,24.2
2017-05-21T15:48:01.489Z,24.4
2017-05-21T15:49:20.223Z,24.2
2017-05-21T15:50:38.936Z,24.4
2017-05-21T15:51:57.682Z,24.3
2017-05-21T15:53:16.397Z,24.3
2017-05-21T15:54:35.079Z,24.2
2017-05-21T15:55:53.765Z,24.3
2017-05-21T15:57:12.505Z,24.3
2017-05-21T15:58:31.210Z,24.2
2017-05-21T15:59:49.892Z,24.1
2017-05-21T16:01:08.585Z,23.9
2017-05-21T16:02:27.333Z,23.7
2017-05-21T16:03:46.039Z,23.4
2017-05-21T16:05:04.734Z,23.2
2017-05-21T16:06:23.461Z,22.9
2017-05-21T16:07:42.140Z,22.7
2017-05-21T16:09:00.868Z,22.6
2017-05-21T16:10:19.576Z,22.5
2017-05-21T16:11:38.318Z,22.5
2017-05-21T16:12:57.010Z,22.5
2017-05-21T16:14:15.758Z,22.4
2017-05-21T16:15:34.494Z,22.4
2017-05-21T16:16:53.172Z,22.4
2017-05-21T16:18:11.863Z,22.5
2017-05-21T16:19:30.635Z,22.4
2017-05-21T16:20:49.320Z,22.4
2017-05-21T16:22:08.006Z,22.3
2017-05-21T16:23:26.690Z,22
2017-05-21T16:24:45.397Z,21.8
2017-05-21T16:26:04.150Z,21.6
2017-05-21T16:27:22.829Z,21.5
2017-05-21T16:28:41.530Z,21.3
2017-05-21T16:30:00.259Z,21.1
2017-05-21T16:31:18.975Z,21
2017-05-21T16:32:37.690Z,20.9
2017-05-21T16:33:56.375Z,20.7
2017-05-21T16:35:15.122Z,20.6
2017-05-21T16:36:33.851Z,20.5
2017-05-21T16:37:52.581Z,20.4
2017-05-21T16:39:11.264Z,20.3
2017-05-21T16:40:29.957Z,20.2
2017-05-21T16:41:48.644Z,20.1
2017-05-21T16:43:07.409Z,20.1
2017-05-21T16:44:26.123Z,20
2017-05-21T16:45:44.812Z,19.9
2017-05-21T16:47:03.534Z,19.9
2017-05-21T16:48:22.223Z,19.8
2017-05-21T16:49:40.901Z,19.8
2017-05-21T16:50:59.618Z,19.8
2017-05-21T16:52:18.328Z,19.7
2017-05-21T16:53:37.061Z,19.7
2017-05-21T16:54:55.742Z,19.6
2017-05-21T16:56:14.460Z,19.4
2017-05-21T16:57:33.159Z,19.5
2017-05-21T16:58:51.885Z,19.5
2017-05-21T17:00:10.591Z,19.4
2017-05-21T17:01:29.338Z,19.3
2017-05-21T17:02:48.018Z,19.2
2017-05-21T17:04:06.704Z,19
2017-05-21T17:05:25.452Z,18.9
2017-05-21T17:06:44.192Z,18.8
2017-05-21T17:08:02.910Z,18.8
2017-05-21T17:09:21.587Z,18.8
2017-05-21T17:10:40.328Z,18.8
2017-05-21T17:11:59.065Z,18.8
2017-05-21T17:13:17.747Z,18.9
2017-05-21T17:14:36.427Z,19
2017-05-21T17:15:55.137Z,19
2017-05-21T17:17:13.910Z,19
2017-05-21T17:18:32.595Z,19
2017-05-21T17:19:51.302Z,18.8
2017-05-21T17:21:09.988Z,18.7
2017-05-21T17:22:28.706Z,18.6
2017-05-21T17:23:47.421Z,18.5
2017-05-21T17:25:06.129Z,18.3
2017-05-21T17:26:24.809Z,18.1
2017-05-21T17:27:43.490Z,17.9
2017-05-21T17:29:02.167Z,17.8
2017-05-21T17:30:20.844Z,17.7
2017-05-21T17:31:39.610Z,17.6
2017-05-21T17:32:58.341Z,17.5
2017-05-21T17:34:17.019Z,17.5
2017-05-21T17:35:35.750Z,17.5
2017-05-21T17:36:54.445Z,17.5
2017-05-21T17:38:13.182Z,17.6
2017-05-21T17:39:31.867Z,17.7
2017-05-21T17:40:50.593Z,17.7
2017-05-21T17:42:09.317Z,17.8
2017-05-21T17:43:28.006Z,17.8
2017-05-21T17:44:46.720Z,17.9
2017-05-21T17:46:05.458Z,17.9
2017-05-21T17:47:24.180Z,17.9